sensor_id;sensor_type;location;lat;lon;timestamp;P1;durP1;ratioP1;P2;durP2;ratioP2
14100;SDS011;7127;49.372;8.166;2024-02-28T00:00:15;7.17;;;6.03;;
14100;SDS011;7127;49.372;8.166;2024-02-28T00:02:42;7.10;;;6.10;;
14100;SDS011;7127;49.372;8.166;2024-02-28T00:05:09;7.20;;;6.17;;
14100;SDS011;7127;49.372;8.166;2024-02-28T00:07:37;7.73;;;6.57;;
14100;SDS011;7127;49.372;8.166;2024-02-28T00:10:04;7.13;;;5.90;;
14100;SDS011;7127;49.372;8.166;2024-02-28T00:12:31;8.53;;;7.27;;
14100;SDS011;7127;49.372;8.166;2024-02-28T00:14:59;7.77;;;6.97;;
14100;SDS011;7127;49.372;8.166;2024-02-28T00:17:26;9.37;;;7.17;;
14100;SDS011;7127;49.372;8.166;2024-02-28T00:19:52;9.27;;;7.63;;
14100;SDS011;7127;49.372;8.166;2024-02-28T00:22:19;7.80;;;6.97;;
14100;SDS011;7127;49.372;8.166;2024-02-28T00:24:47;7.17;;;5.60;;
14100;SDS011;7127;49.372;8.166;2024-02-28T00:27:14;8.17;;;6.57;;
14100;SDS011;7127;49.372;8.166;2024-02-28T00:29:41;9.33;;;6.87;;
14100;SDS011;7127;49.372;8.166;2024-02-28T00:32:08;8.50;;;6.80;;
14100;SDS011;7127;49.372;8.166;2024-02-28T00:34:34;6.23;;;5.30;;
14100;SDS011;7127;49.372;8.166;2024-02-28T00:37:01;8.33;;;6.63;;
14100;SDS011;7127;49.372;8.166;2024-02-28T00:39:28;6.57;;;5.87;;
14100;SDS011;7127;49.372;8.166;2024-02-28T00:41:56;5.70;;;5.10;;
14100;SDS011;7127;49.372;8.166;2024-02-28T00:44:22;8.23;;;5.90;;
14100;SDS011;7127;49.372;8.166;2024-02-28T00:46:49;7.60;;;6.63;;
14100;SDS011;7127;49.372;8.166;2024-02-28T00:49:16;6.80;;;5.87;;
14100;SDS011;7127;49.372;8.166;2024-02-28T00:51:43;5.93;;;5.00;;
14100;SDS011;7127;49.372;8.166;2024-02-28T00:54:10;6.87;;;6.00;;
14100;SDS011;7127;49.372;8.166;2024-02-28T00:56:36;6.53;;;5.43;;
14100;SDS011;7127;49.372;8.166;2024-02-28T00:59:04;6.87;;;5.93;;
14100;SDS011;7127;49.372;8.166;2024-02-28T01:01:35;8.00;;;6.07;;
14100;SDS011;7127;49.372;8.166;2024-02-28T01:04:02;9.37;;;6.30;;
14100;SDS011;7127;49.372;8.166;2024-02-28T01:06:28;8.83;;;6.67;;
14100;SDS011;7127;49.372;8.166;2024-02-28T01:08:55;9.20;;;7.23;;
14100;SDS011;7127;49.372;8.166;2024-02-28T01:11:22;8.17;;;6.73;;
14100;SDS011;7127;49.372;8.166;2024-02-28T01:13:48;7.30;;;6.13;;
14100;SDS011;7127;49.372;8.166;2024-02-28T01:16:17;7.47;;;6.13;;
14100;SDS011;7127;49.372;8.166;2024-02-28T01:18:43;6.87;;;5.33;;
14100;SDS011;7127;49.372;8.166;2024-02-28T01:21:10;8.40;;;6.90;;
14100;SDS011;7127;49.372;8.166;2024-02-28T01:23:37;8.00;;;6.80;;
14100;SDS011;7127;49.372;8.166;2024-02-28T01:26:03;8.10;;;6.93;;
14100;SDS011;7127;49.372;8.166;2024-02-28T01:28:31;7.00;;;6.30;;
14100;SDS011;7127;49.372;8.166;2024-02-28T01:30:58;8.20;;;6.53;;
14100;SDS011;7127;49.372;8.166;2024-02-28T01:33:26;8.37;;;6.67;;
14100;SDS011;7127;49.372;8.166;2024-02-28T01:35:53;7.63;;;6.83;;
14100;SDS011;7127;49.372;8.166;2024-02-28T01:38:20;8.93;;;7.87;;
14100;SDS011;7127;49.372;8.166;2024-02-28T01:40:47;8.83;;;7.73;;
14100;SDS011;7127;49.372;8.166;2024-02-28T01:43:14;10.73;;;9.00;;
14100;SDS011;7127;49.372;8.166;2024-02-28T01:45:40;8.93;;;7.87;;
14100;SDS011;7127;49.372;8.166;2024-02-28T01:48:09;8.00;;;7.20;;
14100;SDS011;7127;49.372;8.166;2024-02-28T01:50:39;10.20;;;7.40;;
14100;SDS011;7127;49.372;8.166;2024-02-28T01:53:08;8.53;;;7.20;;
14100;SDS011;7127;49.372;8.166;2024-02-28T01:55:36;9.00;;;7.20;;
14100;SDS011;7127;49.372;8.166;2024-02-28T01:58:03;9.17;;;7.60;;
14100;SDS011;7127;49.372;8.166;2024-02-28T02:00:31;9.53;;;7.33;;
14100;SDS011;7127;49.372;8.166;2024-02-28T02:02:59;10.40;;;8.43;;
14100;SDS011;7127;49.372;8.166;2024-02-28T02:05:26;8.00;;;6.83;;
14100;SDS011;7127;49.372;8.166;2024-02-28T02:07:55;8.97;;;7.23;;
14100;SDS011;7127;49.372;8.166;2024-02-28T02:10:23;8.23;;;7.27;;
14100;SDS011;7127;49.372;8.166;2024-02-28T02:12:50;10.07;;;8.03;;
14100;SDS011;7127;49.372;8.166;2024-02-28T02:15:16;8.30;;;6.83;;
14100;SDS011;7127;49.372;8.166;2024-02-28T02:17:43;7.73;;;6.77;;
14100;SDS011;7127;49.372;8.166;2024-02-28T02:20:10;8.37;;;7.20;;
14100;SDS011;7127;49.372;8.166;2024-02-28T02:22:41;10.10;;;7.90;;
14100;SDS011;7127;49.372;8.166;2024-02-28T02:25:08;8.10;;;7.00;;
14100;SDS011;7127;49.372;8.166;2024-02-28T02:27:35;9.77;;;7.30;;
14100;SDS011;7127;49.372;8.166;2024-02-28T02:30:02;10.27;;;7.90;;
14100;SDS011;7127;49.372;8.166;2024-02-28T02:32:29;9.77;;;8.77;;
14100;SDS011;7127;49.372;8.166;2024-02-28T02:34:56;7.67;;;6.37;;
14100;SDS011;7127;49.372;8.166;2024-02-28T02:37:22;8.87;;;7.47;;
14100;SDS011;7127;49.372;8.166;2024-02-28T02:39:51;8.97;;;6.90;;
14100;SDS011;7127;49.372;8.166;2024-02-28T02:42:18;9.63;;;6.70;;
14100;SDS011;7127;49.372;8.166;2024-02-28T02:44:45;7.90;;;6.13;;
14100;SDS011;7127;49.372;8.166;2024-02-28T02:47:12;7.80;;;6.57;;
14100;SDS011;7127;49.372;8.166;2024-02-28T02:49:38;7.80;;;6.70;;
14100;SDS011;7127;49.372;8.166;2024-02-28T02:52:05;7.73;;;6.47;;
14100;SDS011;7127;49.372;8.166;2024-02-28T02:54:32;9.13;;;7.17;;
14100;SDS011;7127;49.372;8.166;2024-02-28T02:57:00;10.07;;;7.53;;
14100;SDS011;7127;49.372;8.166;2024-02-28T02:59:27;8.77;;;7.87;;
14100;SDS011;7127;49.372;8.166;2024-02-28T03:01:54;8.63;;;7.50;;
14100;SDS011;7127;49.372;8.166;2024-02-28T03:04:20;9.20;;;8.10;;
14100;SDS011;7127;49.372;8.166;2024-02-28T03:06:47;8.37;;;7.17;;
14100;SDS011;7127;49.372;8.166;2024-02-28T03:09:14;9.87;;;8.40;;
14100;SDS011;7127;49.372;8.166;2024-02-28T03:11:41;10.60;;;8.63;;
14100;SDS011;7127;49.372;8.166;2024-02-28T03:14:09;9.37;;;7.77;;
14100;SDS011;7127;49.372;8.166;2024-02-28T03:16:40;10.70;;;9.13;;
14100;SDS011;7127;49.372;8.166;2024-02-28T03:19:07;9.40;;;8.10;;
14100;SDS011;7127;49.372;8.166;2024-02-28T03:21:34;12.40;;;8.97;;
14100;SDS011;7127;49.372;8.166;2024-02-28T03:24:01;8.93;;;7.40;;
14100;SDS011;7127;49.372;8.166;2024-02-28T03:26:28;11.13;;;9.10;;
14100;SDS011;7127;49.372;8.166;2024-02-28T03:28:55;11.20;;;9.13;;
14100;SDS011;7127;49.372;8.166;2024-02-28T03:31:23;10.50;;;9.07;;
14100;SDS011;7127;49.372;8.166;2024-02-28T03:33:50;9.03;;;7.90;;
14100;SDS011;7127;49.372;8.166;2024-02-28T03:36:16;8.53;;;7.63;;
14100;SDS011;7127;49.372;8.166;2024-02-28T03:38:43;10.87;;;8.07;;
14100;SDS011;7127;49.372;8.166;2024-02-28T03:41:10;9.90;;;8.70;;
14100;SDS011;7127;49.372;8.166;2024-02-28T03:43:37;11.33;;;8.17;;
14100;SDS011;7127;49.372;8.166;2024-02-28T03:46:04;11.90;;;10.53;;
14100;SDS011;7127;49.372;8.166;2024-02-28T03:48:32;10.97;;;8.83;;
14100;SDS011;7127;49.372;8.166;2024-02-28T03:50:59;9.87;;;8.13;;
14100;SDS011;7127;49.372;8.166;2024-02-28T03:53:26;9.77;;;7.60;;
14100;SDS011;7127;49.372;8.166;2024-02-28T03:55:52;10.67;;;8.33;;
14100;SDS011;7127;49.372;8.166;2024-02-28T03:58:19;10.17;;;8.30;;
14100;SDS011;7127;49.372;8.166;2024-02-28T04:00:46;10.60;;;8.53;;
14100;SDS011;7127;49.372;8.166;2024-02-28T04:03:13;8.67;;;7.77;;
14100;SDS011;7127;49.372;8.166;2024-02-28T04:05:41;9.13;;;7.43;;
14100;SDS011;7127;49.372;8.166;2024-02-28T04:08:08;10.07;;;7.67;;
14100;SDS011;7127;49.372;8.166;2024-02-28T04:10:35;9.37;;;8.17;;
14100;SDS011;7127;49.372;8.166;2024-02-28T04:13:02;8.97;;;7.27;;
14100;SDS011;7127;49.372;8.166;2024-02-28T04:15:29;9.40;;;7.77;;
14100;SDS011;7127;49.372;8.166;2024-02-28T04:17:56;10.20;;;8.00;;
14100;SDS011;7127;49.372;8.166;2024-02-28T04:20:23;10.23;;;8.63;;
14100;SDS011;7127;49.372;8.166;2024-02-28T04:22:51;8.93;;;7.40;;
14100;SDS011;7127;49.372;8.166;2024-02-28T04:25:18;9.87;;;8.40;;
14100;SDS011;7127;49.372;8.166;2024-02-28T04:27:44;8.93;;;7.00;;
14100;SDS011;7127;49.372;8.166;2024-02-28T04:30:12;9.80;;;6.80;;
14100;SDS011;7127;49.372;8.166;2024-02-28T04:32:39;9.43;;;7.63;;
14100;SDS011;7127;49.372;8.166;2024-02-28T04:35:06;8.77;;;7.13;;
14100;SDS011;7127;49.372;8.166;2024-02-28T04:37:33;8.53;;;7.10;;
14100;SDS011;7127;49.372;8.166;2024-02-28T04:40:02;9.33;;;7.93;;
14100;SDS011;7127;49.372;8.166;2024-02-28T04:42:31;10.30;;;7.80;;
14100;SDS011;7127;49.372;8.166;2024-02-28T04:44:58;8.83;;;6.67;;
14100;SDS011;7127;49.372;8.166;2024-02-28T04:47:25;8.33;;;6.93;;
14100;SDS011;7127;49.372;8.166;2024-02-28T04:49:52;8.57;;;7.00;;
14100;SDS011;7127;49.372;8.166;2024-02-28T04:52:18;9.80;;;7.80;;
14100;SDS011;7127;49.372;8.166;2024-02-28T04:54:45;7.97;;;6.97;;
14100;SDS011;7127;49.372;8.166;2024-02-28T04:57:13;8.80;;;7.07;;
14100;SDS011;7127;49.372;8.166;2024-02-28T04:59:41;8.67;;;7.07;;
14100;SDS011;7127;49.372;8.166;2024-02-28T05:02:09;8.67;;;7.73;;
14100;SDS011;7127;49.372;8.166;2024-02-28T05:04:36;9.73;;;7.37;;
14100;SDS011;7127;49.372;8.166;2024-02-28T05:07:03;9.10;;;6.93;;
14100;SDS011;7127;49.372;8.166;2024-02-28T05:09:32;8.37;;;6.77;;
14100;SDS011;7127;49.372;8.166;2024-02-28T05:11:58;10.63;;;7.00;;
14100;SDS011;7127;49.372;8.166;2024-02-28T05:14:26;9.47;;;7.87;;
14100;SDS011;7127;49.372;8.166;2024-02-28T05:16:53;10.90;;;7.97;;
14100;SDS011;7127;49.372;8.166;2024-02-28T05:19:20;8.80;;;7.60;;
14100;SDS011;7127;49.372;8.166;2024-02-28T05:21:47;10.10;;;7.73;;
14100;SDS011;7127;49.372;8.166;2024-02-28T05:24:14;9.37;;;7.77;;
14100;SDS011;7127;49.372;8.166;2024-02-28T05:26:41;8.70;;;7.10;;
14100;SDS011;7127;49.372;8.166;2024-02-28T05:29:08;9.43;;;7.67;;
14100;SDS011;7127;49.372;8.166;2024-02-28T05:31:36;10.13;;;8.13;;
14100;SDS011;7127;49.372;8.166;2024-02-28T05:34:03;8.20;;;6.63;;
14100;SDS011;7127;49.372;8.166;2024-02-28T05:36:30;8.07;;;7.23;;
14100;SDS011;7127;49.372;8.166;2024-02-28T05:38:57;10.03;;;8.00;;
14100;SDS011;7127;49.372;8.166;2024-02-28T05:41:26;8.33;;;6.93;;
14100;SDS011;7127;49.372;8.166;2024-02-28T05:43:53;8.67;;;7.20;;
14100;SDS011;7127;49.372;8.166;2024-02-28T05:46:20;8.73;;;7.10;;
14100;SDS011;7127;49.372;8.166;2024-02-28T05:48:48;8.60;;;7.30;;
14100;SDS011;7127;49.372;8.166;2024-02-28T05:51:15;10.43;;;7.70;;
14100;SDS011;7127;49.372;8.166;2024-02-28T05:53:42;9.67;;;7.47;;
14100;SDS011;7127;49.372;8.166;2024-02-28T05:56:10;9.20;;;7.63;;
14100;SDS011;7127;49.372;8.166;2024-02-28T05:58:40;9.07;;;7.17;;
14100;SDS011;7127;49.372;8.166;2024-02-28T06:01:08;8.67;;;7.10;;
14100;SDS011;7127;49.372;8.166;2024-02-28T06:03:34;9.33;;;7.27;;
14100;SDS011;7127;49.372;8.166;2024-02-28T06:06:03;9.63;;;7.57;;
14100;SDS011;7127;49.372;8.166;2024-02-28T06:08:31;12.70;;;9.83;;
14100;SDS011;7127;49.372;8.166;2024-02-28T06:10:58;10.53;;;8.60;;
14100;SDS011;7127;49.372;8.166;2024-02-28T06:13:25;10.30;;;8.20;;
14100;SDS011;7127;49.372;8.166;2024-02-28T06:15:52;10.17;;;7.30;;
14100;SDS011;7127;49.372;8.166;2024-02-28T06:18:19;7.87;;;6.73;;
14100;SDS011;7127;49.372;8.166;2024-02-28T06:20:47;8.20;;;6.80;;
14100;SDS011;7127;49.372;8.166;2024-02-28T06:23:16;8.10;;;6.87;;
14100;SDS011;7127;49.372;8.166;2024-02-28T06:25:43;7.43;;;6.30;;
14100;SDS011;7127;49.372;8.166;2024-02-28T06:28:09;7.10;;;5.77;;
14100;SDS011;7127;49.372;8.166;2024-02-28T06:30:36;6.30;;;5.37;;
14100;SDS011;7127;49.372;8.166;2024-02-28T06:33:03;8.20;;;6.57;;
14100;SDS011;7127;49.372;8.166;2024-02-28T06:35:30;9.70;;;7.40;;
14100;SDS011;7127;49.372;8.166;2024-02-28T06:37:57;10.70;;;8.23;;
14100;SDS011;7127;49.372;8.166;2024-02-28T06:40:25;9.33;;;7.20;;
14100;SDS011;7127;49.372;8.166;2024-02-28T06:42:53;8.20;;;6.67;;
14100;SDS011;7127;49.372;8.166;2024-02-28T06:45:20;7.00;;;6.20;;
14100;SDS011;7127;49.372;8.166;2024-02-28T06:47:47;6.90;;;6.03;;
14100;SDS011;7127;49.372;8.166;2024-02-28T06:50:13;7.87;;;6.17;;
14100;SDS011;7127;49.372;8.166;2024-02-28T06:52:40;7.23;;;6.20;;
14100;SDS011;7127;49.372;8.166;2024-02-28T06:55:07;7.20;;;5.57;;
14100;SDS011;7127;49.372;8.166;2024-02-28T06:57:37;8.27;;;6.10;;
14100;SDS011;7127;49.372;8.166;2024-02-28T07:00:05;7.83;;;6.20;;
14100;SDS011;7127;49.372;8.166;2024-02-28T07:02:34;8.80;;;6.80;;
14100;SDS011;7127;49.372;8.166;2024-02-28T07:05:00;7.77;;;6.53;;
14100;SDS011;7127;49.372;8.166;2024-02-28T07:07:28;7.10;;;6.13;;
14100;SDS011;7127;49.372;8.166;2024-02-28T07:09:55;8.00;;;6.57;;
14100;SDS011;7127;49.372;8.166;2024-02-28T07:12:22;12.17;;;9.37;;
14100;SDS011;7127;49.372;8.166;2024-02-28T07:14:51;10.60;;;8.83;;
14100;SDS011;7127;49.372;8.166;2024-02-28T07:17:18;10.47;;;8.13;;
14100;SDS011;7127;49.372;8.166;2024-02-28T07:19:44;10.90;;;9.10;;
14100;SDS011;7127;49.372;8.166;2024-02-28T07:22:11;10.57;;;8.50;;
14100;SDS011;7127;49.372;8.166;2024-02-28T07:24:38;9.97;;;7.70;;
14100;SDS011;7127;49.372;8.166;2024-02-28T07:27:06;10.60;;;7.87;;
14100;SDS011;7127;49.372;8.166;2024-02-28T07:29:32;11.23;;;8.27;;
14100;SDS011;7127;49.372;8.166;2024-02-28T07:32:01;10.77;;;8.23;;
14100;SDS011;7127;49.372;8.166;2024-02-28T07:34:28;10.70;;;8.90;;
14100;SDS011;7127;49.372;8.166;2024-02-28T07:36:54;10.13;;;8.30;;
14100;SDS011;7127;49.372;8.166;2024-02-28T07:39:22;12.07;;;8.50;;
14100;SDS011;7127;49.372;8.166;2024-02-28T07:41:49;10.97;;;8.70;;
14100;SDS011;7127;49.372;8.166;2024-02-28T07:44:16;10.27;;;8.63;;
14100;SDS011;7127;49.372;8.166;2024-02-28T07:46:43;11.93;;;9.83;;
14100;SDS011;7127;49.372;8.166;2024-02-28T07:49:11;13.90;;;11.17;;
14100;SDS011;7127;49.372;8.166;2024-02-28T07:51:39;16.33;;;12.67;;
14100;SDS011;7127;49.372;8.166;2024-02-28T07:54:07;17.20;;;13.40;;
14100;SDS011;7127;49.372;8.166;2024-02-28T07:56:33;14.67;;;12.70;;
14100;SDS011;7127;49.372;8.166;2024-02-28T07:59:00;15.27;;;12.53;;
14100;SDS011;7127;49.372;8.166;2024-02-28T08:01:27;16.13;;;11.77;;
14100;SDS011;7127;49.372;8.166;2024-02-28T08:03:54;17.53;;;13.50;;
14100;SDS011;7127;49.372;8.166;2024-02-28T08:06:22;15.33;;;12.63;;
14100;SDS011;7127;49.372;8.166;2024-02-28T08:08:49;16.87;;;12.60;;
14100;SDS011;7127;49.372;8.166;2024-02-28T08:11:16;16.97;;;12.53;;
14100;SDS011;7127;49.372;8.166;2024-02-28T08:13:44;15.37;;;12.37;;
14100;SDS011;7127;49.372;8.166;2024-02-28T08:16:10;16.27;;;13.03;;
14100;SDS011;7127;49.372;8.166;2024-02-28T08:18:37;15.87;;;12.83;;
14100;SDS011;7127;49.372;8.166;2024-02-28T08:21:04;15.33;;;12.87;;
14100;SDS011;7127;49.372;8.166;2024-02-28T08:23:32;16.20;;;12.80;;
14100;SDS011;7127;49.372;8.166;2024-02-28T08:25:59;17.47;;;14.07;;
14100;SDS011;7127;49.372;8.166;2024-02-28T08:28:26;17.10;;;12.97;;
14100;SDS011;7127;49.372;8.166;2024-02-28T08:30:52;14.70;;;12.20;;
14100;SDS011;7127;49.372;8.166;2024-02-28T08:33:19;18.03;;;14.67;;
14100;SDS011;7127;49.372;8.166;2024-02-28T08:35:46;18.17;;;14.27;;
14100;SDS011;7127;49.372;8.166;2024-02-28T08:38:15;16.87;;;13.70;;
14100;SDS011;7127;49.372;8.166;2024-02-28T08:40:43;15.60;;;12.93;;
14100;SDS011;7127;49.372;8.166;2024-02-28T08:43:10;19.83;;;15.50;;
14100;SDS011;7127;49.372;8.166;2024-02-28T08:45:37;15.30;;;13.10;;
14100;SDS011;7127;49.372;8.166;2024-02-28T08:48:04;14.37;;;12.33;;
14100;SDS011;7127;49.372;8.166;2024-02-28T08:50:31;16.53;;;14.03;;
14100;SDS011;7127;49.372;8.166;2024-02-28T08:52:58;18.10;;;14.83;;
14100;SDS011;7127;49.372;8.166;2024-02-28T08:55:25;17.10;;;13.87;;
14100;SDS011;7127;49.372;8.166;2024-02-28T08:57:55;18.67;;;14.67;;
14100;SDS011;7127;49.372;8.166;2024-02-28T09:00:21;17.40;;;13.60;;
14100;SDS011;7127;49.372;8.166;2024-02-28T09:02:48;17.77;;;14.00;;
14100;SDS011;7127;49.372;8.166;2024-02-28T09:05:15;14.30;;;12.37;;
14100;SDS011;7127;49.372;8.166;2024-02-28T09:07:43;15.30;;;12.33;;
14100;SDS011;7127;49.372;8.166;2024-02-28T09:10:11;19.60;;;14.33;;
14100;SDS011;7127;49.372;8.166;2024-02-28T09:12:38;15.40;;;12.73;;
14100;SDS011;7127;49.372;8.166;2024-02-28T09:15:07;18.87;;;14.70;;
14100;SDS011;7127;49.372;8.166;2024-02-28T09:17:34;17.33;;;13.27;;
14100;SDS011;7127;49.372;8.166;2024-02-28T09:20:01;17.60;;;14.13;;
14100;SDS011;7127;49.372;8.166;2024-02-28T09:22:29;16.53;;;13.20;;
14100;SDS011;7127;49.372;8.166;2024-02-28T09:24:56;17.10;;;14.10;;
14100;SDS011;7127;49.372;8.166;2024-02-28T09:27:22;15.30;;;13.17;;
14100;SDS011;7127;49.372;8.166;2024-02-28T09:29:51;17.40;;;13.70;;
14100;SDS011;7127;49.372;8.166;2024-02-28T09:32:19;16.73;;;14.17;;
14100;SDS011;7127;49.372;8.166;2024-02-28T09:34:45;14.80;;;12.27;;
14100;SDS011;7127;49.372;8.166;2024-02-28T09:37:13;13.93;;;11.37;;
14100;SDS011;7127;49.372;8.166;2024-02-28T09:39:41;15.63;;;12.67;;
14100;SDS011;7127;49.372;8.166;2024-02-28T09:42:08;14.50;;;12.30;;
14100;SDS011;7127;49.372;8.166;2024-02-28T09:44:36;15.53;;;11.80;;
14100;SDS011;7127;49.372;8.166;2024-02-28T09:47:03;15.77;;;12.57;;
14100;SDS011;7127;49.372;8.166;2024-02-28T09:49:32;15.67;;;12.67;;
14100;SDS011;7127;49.372;8.166;2024-02-28T09:52:02;15.23;;;12.10;;
14100;SDS011;7127;49.372;8.166;2024-02-28T09:54:30;15.77;;;12.13;;
14100;SDS011;7127;49.372;8.166;2024-02-28T09:56:56;16.20;;;12.63;;
14100;SDS011;7127;49.372;8.166;2024-02-28T09:59:23;15.20;;;12.50;;
14100;SDS011;7127;49.372;8.166;2024-02-28T10:01:53;16.10;;;12.83;;
14100;SDS011;7127;49.372;8.166;2024-02-28T10:04:23;16.63;;;12.43;;
14100;SDS011;7127;49.372;8.166;2024-02-28T10:06:53;15.33;;;12.17;;
14100;SDS011;7127;49.372;8.166;2024-02-28T10:09:19;14.83;;;12.10;;
14100;SDS011;7127;49.372;8.166;2024-02-28T10:11:46;17.07;;;13.57;;
14100;SDS011;7127;49.372;8.166;2024-02-28T10:14:16;20.47;;;14.97;;
14100;SDS011;7127;49.372;8.166;2024-02-28T10:16:44;19.53;;;15.03;;
14100;SDS011;7127;49.372;8.166;2024-02-28T10:19:11;16.33;;;13.10;;
14100;SDS011;7127;49.372;8.166;2024-02-28T10:21:38;15.40;;;12.73;;
14100;SDS011;7127;49.372;8.166;2024-02-28T10:24:06;16.27;;;12.50;;
14100;SDS011;7127;49.372;8.166;2024-02-28T10:26:41;18.00;;;13.50;;
14100;SDS011;7127;49.372;8.166;2024-02-28T10:29:08;16.67;;;12.70;;
14100;SDS011;7127;49.372;8.166;2024-02-28T10:31:35;16.83;;;13.27;;
14100;SDS011;7127;49.372;8.166;2024-02-28T10:34:02;18.07;;;13.97;;
14100;SDS011;7127;49.372;8.166;2024-02-28T10:36:31;16.97;;;13.33;;
14100;SDS011;7127;49.372;8.166;2024-02-28T10:38:58;19.07;;;14.07;;
14100;SDS011;7127;49.372;8.166;2024-02-28T10:41:28;16.67;;;13.50;;
14100;SDS011;7127;49.372;8.166;2024-02-28T10:43:55;14.57;;;11.37;;
14100;SDS011;7127;49.372;8.166;2024-02-28T10:46:23;16.20;;;12.87;;
14100;SDS011;7127;49.372;8.166;2024-02-28T10:48:49;14.90;;;12.57;;
14100;SDS011;7127;49.372;8.166;2024-02-28T10:51:19;14.97;;;12.50;;
14100;SDS011;7127;49.372;8.166;2024-02-28T10:53:49;17.90;;;12.87;;
14100;SDS011;7127;49.372;8.166;2024-02-28T10:56:23;14.83;;;11.70;;
14100;SDS011;7127;49.372;8.166;2024-02-28T10:58:51;16.13;;;11.97;;
14100;SDS011;7127;49.372;8.166;2024-02-28T11:01:20;15.27;;;12.77;;
14100;SDS011;7127;49.372;8.166;2024-02-28T11:03:47;14.00;;;10.77;;
14100;SDS011;7127;49.372;8.166;2024-02-28T11:06:18;12.43;;;9.60;;
14100;SDS011;7127;49.372;8.166;2024-02-28T11:08:46;13.50;;;10.60;;
14100;SDS011;7127;49.372;8.166;2024-02-28T11:11:14;15.80;;;11.53;;
14100;SDS011;7127;49.372;8.166;2024-02-28T11:13:52;15.30;;;11.77;;
14100;SDS011;7127;49.372;8.166;2024-02-28T11:16:25;15.67;;;12.37;;
14100;SDS011;7127;49.372;8.166;2024-02-28T11:18:53;14.53;;;11.00;;
14100;SDS011;7127;49.372;8.166;2024-02-28T11:21:22;17.00;;;12.97;;
14100;SDS011;7127;49.372;8.166;2024-02-28T11:23:50;15.60;;;12.13;;
14100;SDS011;7127;49.372;8.166;2024-02-28T11:26:18;13.87;;;11.37;;
14100;SDS011;7127;49.372;8.166;2024-02-28T11:28:45;12.97;;;10.53;;
14100;SDS011;7127;49.372;8.166;2024-02-28T11:31:14;15.83;;;12.73;;
14100;SDS011;7127;49.372;8.166;2024-02-28T11:33:41;14.47;;;12.00;;
14100;SDS011;7127;49.372;8.166;2024-02-28T11:36:08;12.43;;;9.87;;
14100;SDS011;7127;49.372;8.166;2024-02-28T11:38:38;13.63;;;10.43;;
14100;SDS011;7127;49.372;8.166;2024-02-28T11:41:05;16.67;;;11.87;;
14100;SDS011;7127;49.372;8.166;2024-02-28T11:43:31;12.10;;;9.53;;
14100;SDS011;7127;49.372;8.166;2024-02-28T11:45:59;12.63;;;10.37;;
14100;SDS011;7127;49.372;8.166;2024-02-28T11:48:28;12.80;;;10.37;;
14100;SDS011;7127;49.372;8.166;2024-02-28T11:50:56;11.80;;;9.47;;
14100;SDS011;7127;49.372;8.166;2024-02-28T11:53:24;12.90;;;10.37;;
14100;SDS011;7127;49.372;8.166;2024-02-28T11:55:51;12.03;;;8.77;;
14100;SDS011;7127;49.372;8.166;2024-02-28T11:58:20;13.13;;;10.20;;
14100;SDS011;7127;49.372;8.166;2024-02-28T12:00:47;11.13;;;9.30;;
14100;SDS011;7127;49.372;8.166;2024-02-28T12:03:15;11.73;;;9.43;;
14100;SDS011;7127;49.372;8.166;2024-02-28T12:05:47;10.43;;;8.67;;
14100;SDS011;7127;49.372;8.166;2024-02-28T12:08:15;12.37;;;10.37;;
14100;SDS011;7127;49.372;8.166;2024-02-28T12:10:43;12.80;;;9.93;;
14100;SDS011;7127;49.372;8.166;2024-02-28T12:13:10;11.07;;;8.70;;
14100;SDS011;7127;49.372;8.166;2024-02-28T12:15:38;11.20;;;8.90;;
14100;SDS011;7127;49.372;8.166;2024-02-28T12:18:07;11.30;;;9.10;;
14100;SDS011;7127;49.372;8.166;2024-02-28T12:20:35;11.23;;;9.03;;
14100;SDS011;7127;49.372;8.166;2024-02-28T12:23:04;11.63;;;9.13;;
14100;SDS011;7127;49.372;8.166;2024-02-28T12:25:30;11.57;;;9.30;;
14100;SDS011;7127;49.372;8.166;2024-02-28T12:27:57;11.20;;;8.80;;
14100;SDS011;7127;49.372;8.166;2024-02-28T12:30:24;10.87;;;8.83;;
14100;SDS011;7127;49.372;8.166;2024-02-28T12:32:51;12.00;;;10.00;;
14100;SDS011;7127;49.372;8.166;2024-02-28T12:35:18;12.13;;;8.73;;
14100;SDS011;7127;49.372;8.166;2024-02-28T12:37:45;11.83;;;9.60;;
14100;SDS011;7127;49.372;8.166;2024-02-28T12:40:16;10.30;;;8.87;;
14100;SDS011;7127;49.372;8.166;2024-02-28T12:42:43;10.57;;;8.73;;
14100;SDS011;7127;49.372;8.166;2024-02-28T12:45:09;9.53;;;8.17;;
14100;SDS011;7127;49.372;8.166;2024-02-28T12:47:36;7.83;;;6.87;;
14100;SDS011;7127;49.372;8.166;2024-02-28T12:50:04;7.73;;;6.50;;
14100;SDS011;7127;49.372;8.166;2024-02-28T12:52:33;8.70;;;7.50;;
14100;SDS011;7127;49.372;8.166;2024-02-28T12:55:00;8.97;;;7.03;;
14100;SDS011;7127;49.372;8.166;2024-02-28T12:57:29;9.30;;;7.60;;
14100;SDS011;7127;49.372;8.166;2024-02-28T12:59:55;10.40;;;7.97;;
14100;SDS011;7127;49.372;8.166;2024-02-28T13:02:22;7.77;;;6.37;;
14100;SDS011;7127;49.372;8.166;2024-02-28T13:04:49;8.43;;;7.47;;
14100;SDS011;7127;49.372;8.166;2024-02-28T13:07:16;10.03;;;8.57;;
14100;SDS011;7127;49.372;8.166;2024-02-28T13:09:44;8.43;;;7.03;;
14100;SDS011;7127;49.372;8.166;2024-02-28T13:12:11;8.67;;;6.80;;
14100;SDS011;7127;49.372;8.166;2024-02-28T13:14:39;8.93;;;7.40;;
14100;SDS011;7127;49.372;8.166;2024-02-28T13:17:06;9.17;;;7.60;;
14100;SDS011;7127;49.372;8.166;2024-02-28T13:19:33;9.83;;;7.30;;
14100;SDS011;7127;49.372;8.166;2024-02-28T13:21:59;7.60;;;6.37;;
14100;SDS011;7127;49.372;8.166;2024-02-28T13:24:26;7.93;;;6.30;;
14100;SDS011;7127;49.372;8.166;2024-02-28T13:26:53;7.63;;;6.10;;
14100;SDS011;7127;49.372;8.166;2024-02-28T13:29:20;7.43;;;6.17;;
14100;SDS011;7127;49.372;8.166;2024-02-28T13:31:48;8.67;;;7.10;;
14100;SDS011;7127;49.372;8.166;2024-02-28T13:34:15;8.80;;;6.87;;
14100;SDS011;7127;49.372;8.166;2024-02-28T13:36:41;9.60;;;8.13;;
14100;SDS011;7127;49.372;8.166;2024-02-28T13:39:08;8.73;;;7.10;;
14100;SDS011;7127;49.372;8.166;2024-02-28T13:41:36;7.57;;;6.10;;
14100;SDS011;7127;49.372;8.166;2024-02-28T13:44:03;7.67;;;6.17;;
14100;SDS011;7127;49.372;8.166;2024-02-28T13:46:30;7.27;;;6.10;;
14100;SDS011;7127;49.372;8.166;2024-02-28T13:48:58;6.60;;;5.47;;
14100;SDS011;7127;49.372;8.166;2024-02-28T13:51:25;6.87;;;5.80;;
14100;SDS011;7127;49.372;8.166;2024-02-28T13:53:52;6.07;;;5.47;;
14100;SDS011;7127;49.372;8.166;2024-02-28T13:56:19;6.97;;;5.23;;
14100;SDS011;7127;49.372;8.166;2024-02-28T13:58:46;6.67;;;5.43;;
14100;SDS011;7127;49.372;8.166;2024-02-28T14:01:13;6.70;;;5.47;;
14100;SDS011;7127;49.372;8.166;2024-02-28T14:03:39;7.70;;;6.07;;
14100;SDS011;7127;49.372;8.166;2024-02-28T14:06:08;5.63;;;4.73;;
14100;SDS011;7127;49.372;8.166;2024-02-28T14:08:34;5.07;;;4.40;;
14100;SDS011;7127;49.372;8.166;2024-02-28T14:11:01;5.83;;;4.63;;
14100;SDS011;7127;49.372;8.166;2024-02-28T14:13:27;6.00;;;5.20;;
14100;SDS011;7127;49.372;8.166;2024-02-28T14:15:54;6.27;;;5.20;;
14100;SDS011;7127;49.372;8.166;2024-02-28T14:18:21;5.67;;;4.93;;
14100;SDS011;7127;49.372;8.166;2024-02-28T14:20:47;5.57;;;4.43;;
14100;SDS011;7127;49.372;8.166;2024-02-28T14:23:16;5.83;;;4.53;;
14100;SDS011;7127;49.372;8.166;2024-02-28T14:25:43;5.40;;;4.60;;
14100;SDS011;7127;49.372;8.166;2024-02-28T14:28:09;5.73;;;4.73;;
14100;SDS011;7127;49.372;8.166;2024-02-28T14:30:37;5.53;;;4.50;;
14100;SDS011;7127;49.372;8.166;2024-02-28T14:33:04;5.77;;;4.87;;
14100;SDS011;7127;49.372;8.166;2024-02-28T14:35:31;5.03;;;4.30;;
14100;SDS011;7127;49.372;8.166;2024-02-28T14:37:58;5.20;;;4.40;;
14100;SDS011;7127;49.372;8.166;2024-02-28T14:40:26;5.40;;;4.50;;
14100;SDS011;7127;49.372;8.166;2024-02-28T14:42:53;5.80;;;4.40;;
14100;SDS011;7127;49.372;8.166;2024-02-28T14:45:20;4.60;;;4.10;;
14100;SDS011;7127;49.372;8.166;2024-02-28T14:47:48;4.17;;;3.70;;
14100;SDS011;7127;49.372;8.166;2024-02-28T14:50:15;4.73;;;3.73;;